createdAt,value
2023-02-27T00:01:15.717Z,2.8
2023-02-27T00:02:31.000Z,2.5
2023-02-27T00:03:48.000Z,3.8
2023-02-27T00:04:46.297Z,3.3
2023-02-27T00:06:19.519Z,1.8
2023-02-27T00:07:35.710Z,3.2
2023-02-27T00:08:50.932Z,3.8
2023-02-27T00:09:49.126Z,3.1
2023-02-27T00:11:23.319Z,2.6
2023-02-27T00:12:39.514Z,1.8
2023-02-27T00:13:55.703Z,2.7
2023-02-27T00:15:11.000Z,1.8
2023-02-27T00:16:28.000Z,3.1
2023-02-27T00:17:26.288Z,1.6
2023-02-27T00:18:41.498Z,1.5
2023-02-27T00:19:57.691Z,3.7
2023-02-27T00:21:13.885Z,2.7
2023-02-27T00:22:48.078Z,2.3
2023-02-27T00:24:04.000Z,2.5
2023-02-27T00:25:20.000Z,2.4
2023-02-27T00:26:36.000Z,3.5
2023-02-27T00:27:34.853Z,1.6
2023-02-27T00:29:09.041Z,2
2023-02-27T00:30:07.240Z,3.5
2023-02-27T00:31:41.433Z,3.2
2023-02-27T00:33:16.000Z,2.1
2023-02-27T00:34:13.000Z,2.6
2023-02-27T00:35:30.014Z,3.3
2023-02-27T00:36:27.235Z,2.3
2023-02-27T00:38:01.000Z,5.2
2023-02-27T00:39:17.621Z,3.3
2023-02-27T00:40:15.815Z,2.9
2023-02-27T00:41:50.000Z,2.5
2023-02-27T00:43:06.197Z,4.5
2023-02-27T00:44:04.396Z,4.4
2023-02-27T00:45:38.591Z,4.6
2023-02-27T00:46:53.000Z,2.4
2023-02-27T00:47:52.003Z,2.5
2023-02-27T00:49:08.319Z,3.8
2023-02-27T00:50:42.512Z,2.9
2023-02-27T00:51:40.705Z,2.3
2023-02-27T00:53:14.912Z,3.2
2023-02-27T00:54:31.092Z,3.5
2023-02-27T00:55:29.286Z,2.6
2023-02-27T00:56:45.480Z,3.1
2023-02-27T00:58:19.000Z,2
2023-02-27T00:59:35.867Z,4
2023-02-27T01:00:34.062Z,3.5
2023-02-27T01:02:08.000Z,2.7
2023-02-27T01:03:24.000Z,2.5
2023-02-27T01:04:22.642Z,3.1
2023-02-27T01:05:38.836Z,2.4
2023-02-27T01:06:55.030Z,3.2
2023-02-27T01:08:28.244Z,1.6
2023-02-27T01:09:44.447Z,1.7
2023-02-27T01:10:42.627Z,5.1
2023-02-27T01:12:16.000Z,5.1
2023-02-27T01:13:15.015Z,2.9
2023-02-27T01:14:31.208Z,1.3
2023-02-27T01:16:05.000Z,2.5
2023-02-27T01:17:21.595Z,2.6
2023-02-27T01:18:19.789Z,1.7
2023-02-27T01:19:53.000Z,3.1
2023-02-27T01:21:09.226Z,1.7
2023-02-27T01:22:07.544Z,3.7
2023-02-27T01:23:23.737Z,2.4
2023-02-27T01:24:56.000Z,2.5
2023-02-27T01:25:55.140Z,2.6
2023-02-27T01:27:29.342Z,3.7
2023-02-27T01:28:45.000Z,2.5
2023-02-27T01:30:01.000Z,2.1
2023-02-27T01:30:59.914Z,4.3
2023-02-27T01:32:34.000Z,2.1
2023-02-27T01:33:32.303Z,4.3
2023-02-27T01:35:06.000Z,4.5
2023-02-27T01:36:04.690Z,3.4
2023-02-27T01:37:38.000Z,5.1
2023-02-27T01:38:37.077Z,4
2023-02-27T01:40:11.000Z,1.9
2023-02-27T01:41:27.000Z,2.8
2023-02-27T01:42:43.000Z,2.7
2023-02-27T01:43:41.853Z,3.7
2023-02-27T01:45:16.000Z,2.5
2023-02-27T01:46:14.240Z,1.4
2023-02-27T01:47:48.000Z,1.5
2023-02-27T01:48:46.627Z,2.6
2023-02-27T01:50:20.000Z,2.7
2023-02-27T01:51:37.023Z,3.1
2023-02-27T01:52:53.000Z,3.3
2023-02-27T01:54:09.000Z,4.3
2023-02-27T01:55:25.596Z,4
2023-02-27T01:56:41.801Z,2.6
2023-02-27T01:57:57.010Z,2.1
2023-02-27T01:59:13.210Z,2.4
2023-02-27T02:00:47.000Z,3.6
2023-02-27T02:01:44.618Z,4.2
2023-02-27T02:02:59.000Z,2.2
2023-02-27T02:04:16.000Z,3
2023-02-27T02:05:32.229Z,2.4
2023-02-27T02:06:48.000Z,4.2
2023-02-27T02:07:46.602Z,2.3
2023-02-27T02:09:02.796Z,1.9
2023-02-27T02:10:36.989Z,3.3
2023-02-27T02:11:35.183Z,3.7
2023-02-27T02:12:51.376Z,3.5
2023-02-27T02:14:25.000Z,1.4
2023-02-27T02:15:23.763Z,2.5
2023-02-27T02:16:39.957Z,4.1
2023-02-27T02:18:14.151Z,3.1
2023-02-27T02:19:30.344Z,2.8
2023-02-27T02:20:46.548Z,2.6
2023-02-27T02:22:02.000Z,2
2023-02-27T02:23:17.942Z,1.6
2023-02-27T02:24:34.000Z,3.2
2023-02-27T02:25:50.000Z,3.2
2023-02-27T02:26:48.522Z,1.8
2023-02-27T02:28:03.743Z,1.8
2023-02-27T02:29:37.000Z,3.9
2023-02-27T02:31:13.000Z,2.3
2023-02-27T02:32:10.324Z,2.2
2023-02-27T02:33:26.000Z,2.7
2023-02-27T02:34:24.711Z,2.4
2023-02-27T02:35:41.026Z,5.4
2023-02-27T02:36:57.219Z,7.1
2023-02-27T02:38:31.000Z,1.9
2023-02-27T02:39:29.607Z,3
2023-02-27T02:41:03.000Z,2.3
2023-02-27T02:42:19.996Z,1.8
2023-02-27T02:43:18.188Z,4.1
2023-02-27T02:44:52.382Z,2.6
2023-02-27T02:46:08.576Z,4.4
2023-02-27T02:47:24.768Z,4.6
2023-02-27T02:48:40.963Z,3.3
2023-02-27T02:49:57.157Z,1.6
2023-02-27T02:51:13.351Z,3.7
2023-02-27T02:52:11.545Z,2.8
2023-02-27T02:53:27.738Z,2.2
2023-02-27T02:55:20.000Z,4.1
2023-02-27T02:56:18.000Z,2.2
2023-02-27T02:57:34.319Z,2.6
2023-02-27T02:58:50.000Z,3.4
2023-02-27T03:00:25.000Z,1.4
2023-02-27T03:01:41.000Z,2.9
2023-02-27T03:02:21.095Z,4.4
2023-02-27T03:03:54.315Z,2.7
2023-02-27T03:04:52.509Z,1.5
2023-02-27T03:06:25.000Z,4.1
2023-02-27T03:07:23.934Z,2.3
2023-02-27T03:08:58.000Z,2.5
2023-02-27T03:10:14.321Z,2.3
2023-02-27T03:11:30.515Z,4
2023-02-27T03:12:46.711Z,1.6
2023-02-27T03:14:03.000Z,4.4
2023-02-27T03:15:19.245Z,2.6
2023-02-27T03:16:34.454Z,1.9
2023-02-27T03:17:32.647Z,3.9
2023-02-27T03:19:06.000Z,1.5
2023-02-27T03:20:23.000Z,1.4
2023-02-27T03:21:39.000Z,3.7
2023-02-27T03:22:55.422Z,1.9
2023-02-27T03:24:11.000Z,3.2
2023-02-27T03:25:09.809Z,2
2023-02-27T03:26:44.000Z,2.1
2023-02-27T03:27:42.197Z,2.6
2023-02-27T03:29:16.390Z,3.7
2023-02-27T03:30:32.586Z,3
2023-02-27T03:31:48.781Z,2.5
2023-02-27T03:33:22.000Z,1.5
2023-02-27T03:34:20.178Z,2.1
2023-02-27T03:35:36.000Z,2.4
2023-02-27T03:36:52.586Z,2.6
2023-02-27T03:38:08.760Z,2.4
2023-02-27T03:39:06.953Z,3.7
2023-02-27T03:40:23.147Z,3.6
2023-02-27T03:41:57.488Z,2.9
2023-02-27T03:43:13.682Z,1.8
2023-02-27T03:44:29.000Z,3.7
2023-02-27T03:45:46.085Z,3.6
2023-02-27T03:46:43.278Z,1.8
2023-02-27T03:48:17.471Z,3.2
2023-02-27T03:49:33.000Z,2.3
2023-02-27T03:51:08.000Z,2
2023-02-27T03:52:06.057Z,2.1
2023-02-27T03:53:04.246Z,2.7
2023-02-27T03:54:38.000Z,2.1
2023-02-27T03:55:36.633Z,2
2023-02-27T03:57:10.000Z,2.7
2023-02-27T03:58:27.000Z,3.3
2023-02-27T03:59:43.232Z,2.2
2023-02-27T04:00:59.000Z,2.8
2023-02-27T04:01:57.601Z,1.9
2023-02-27T04:03:31.809Z,2.5
2023-02-27T04:04:47.000Z,2.6
2023-02-27T04:05:45.199Z,1.6
2023-02-27T04:07:19.401Z,2.2
2023-02-27T04:08:17.586Z,3.5
2023-02-27T04:10:09.000Z,2.9
2023-02-27T04:10:49.000Z,3
2023-02-27T04:12:22.221Z,2.5
2023-02-27T04:13:38.415Z,3.1
2023-02-27T04:14:36.609Z,2.9
2023-02-27T04:16:10.814Z,1.9
2023-02-27T04:17:08.023Z,2.7
2023-02-27T04:18:42.000Z,4.8
2023-02-27T04:19:57.428Z,8.9
2023-02-27T04:21:13.622Z,3.3
2023-02-27T04:22:48.000Z,3.8
2023-02-27T04:23:28.008Z,2.3
2023-02-27T04:24:44.202Z,4.9
2023-02-27T04:26:18.395Z,1.9
2023-02-27T04:27:34.000Z,3.8
2023-02-27T04:28:50.797Z,3.8
2023-02-27T04:30:06.000Z,2.8
2023-02-27T04:31:05.171Z,5.2
2023-02-27T04:32:39.000Z,3.9
2023-02-27T04:33:55.558Z,3.3
2023-02-27T04:35:11.000Z,2.8
2023-02-27T04:36:09.945Z,1.8
2023-02-27T04:37:44.140Z,3.3
2023-02-27T04:39:00.000Z,3.5
2023-02-27T04:40:16.527Z,2.7
2023-02-27T04:41:14.721Z,2.6
2023-02-27T04:42:47.000Z,2.8
2023-02-27T04:43:46.124Z,4.2
2023-02-27T04:45:20.327Z,2
2023-02-27T04:46:36.514Z,5.7
2023-02-27T04:47:34.705Z,2.7
2023-02-27T04:48:50.899Z,2.8
2023-02-27T04:50:25.000Z,3.3
2023-02-27T04:51:41.000Z,3
2023-02-27T04:52:57.492Z,3.7
2023-02-27T04:54:13.000Z,4.1
2023-02-27T04:55:28.000Z,3.4
2023-02-27T04:56:27.087Z,2.5
2023-02-27T04:58:00.000Z,3.7
2023-02-27T04:59:16.502Z,3
2023-02-27T05:00:51.000Z,2
2023-02-27T05:01:48.908Z,1.8
2023-02-27T05:02:47.082Z,2.5
2023-02-27T05:04:21.000Z,4
2023-02-27T05:05:37.000Z,2.8
2023-02-27T05:06:53.676Z,2.4
2023-02-27T05:08:08.000Z,3
2023-02-27T05:09:07.067Z,2.6
2023-02-27T05:10:41.270Z,2.8
2023-02-27T05:11:57.000Z,5
2023-02-27T05:13:13.649Z,2.7
2023-02-27T05:14:29.000Z,4.6
2023-02-27T05:15:46.000Z,3.3
2023-02-27T05:17:02.000Z,3.5
2023-02-27T05:18:18.438Z,2.3
2023-02-27T05:19:16.617Z,2.6
2023-02-27T05:20:50.000Z,3.7
2023-02-27T05:21:49.004Z,2.7
2023-02-27T05:23:23.205Z,4.6
2023-02-27T05:24:39.405Z,4.3
2023-02-27T05:25:54.620Z,3.2
2023-02-27T05:27:09.000Z,4
2023-02-27T05:28:26.014Z,4.1
2023-02-27T05:29:42.000Z,8.9
2023-02-27T05:30:58.000Z,3.1
2023-02-27T05:31:56.595Z,6.5
2023-02-27T05:33:29.834Z,6.1
2023-02-27T05:34:27.025Z,6.4
2023-02-27T05:36:01.000Z,3.7
2023-02-27T05:37:17.423Z,5.3
2023-02-27T05:38:33.000Z,3.8
2023-02-27T05:39:49.000Z,3.8
2023-02-27T05:41:06.010Z,4.9
2023-02-27T05:42:22.000Z,3.9
2023-02-27T05:43:38.397Z,4.4
2023-02-27T05:44:54.582Z,6
2023-02-27T05:45:52.769Z,5.4
2023-02-27T05:47:26.000Z,6.1
2023-02-27T05:48:43.169Z,2.8
2023-02-27T05:49:41.351Z,3.1
2023-02-27T05:51:15.000Z,3.5
2023-02-27T05:52:13.739Z,3.2
2023-02-27T05:53:47.932Z,3.6
2023-02-27T05:55:04.000Z,4.2
2023-02-27T05:56:20.000Z,3.7
2023-02-27T05:57:36.537Z,6
2023-02-27T05:58:51.000Z,4.4
2023-02-27T05:59:49.918Z,5.2
2023-02-27T06:01:06.111Z,6
2023-02-27T06:02:40.000Z,4.7
2023-02-27T06:03:38.498Z,4
2023-02-27T06:04:54.692Z,3.7
2023-02-27T06:06:28.000Z,6.5
2023-02-27T06:07:45.079Z,2.7
2023-02-27T06:09:01.000Z,4.1
2023-02-27T06:09:59.467Z,3.5
2023-02-27T06:11:33.000Z,3.8
2023-02-27T06:12:32.002Z,4.3
2023-02-27T06:14:06.343Z,4.6
2023-02-27T06:15:22.000Z,5.7
2023-02-27T06:16:38.000Z,4
2023-02-27T06:17:36.925Z,3.6
2023-02-27T06:19:11.130Z,7.3
2023-02-27T06:20:27.000Z,9.7
2023-02-27T06:21:43.000Z,5.8
2023-02-27T06:22:41.699Z,4.5
2023-02-27T06:24:15.893Z,8.2
2023-02-27T06:25:14.086Z,3.4
2023-02-27T06:26:47.000Z,5.7
2023-02-27T06:28:03.514Z,4.9
2023-02-27T06:29:19.000Z,2.6
2023-02-27T06:30:17.877Z,4.4
2023-02-27T06:31:52.000Z,5.6
2023-02-27T06:33:08.000Z,6.7
2023-02-27T06:34:06.459Z,5.1
2023-02-27T06:35:22.653Z,4.6
2023-02-27T06:36:56.846Z,2.8
2023-02-27T06:37:55.040Z,6.4
2023-02-27T06:39:11.234Z,4.3
2023-02-27T06:40:45.445Z,4.5
2023-02-27T06:42:00.668Z,3.5
2023-02-27T06:43:16.000Z,2.6
2023-02-27T06:44:33.049Z,5
2023-02-27T06:45:49.000Z,3.6
2023-02-27T06:46:47.546Z,3.4
2023-02-27T06:48:03.739Z,7
2023-02-27T06:49:19.933Z,4.7
2023-02-27T06:50:54.144Z,6.5
2023-02-27T06:52:10.000Z,4.4
2023-02-27T06:53:08.514Z,4.7
2023-02-27T06:54:24.707Z,8.3
2023-02-27T06:55:58.907Z,5.4
2023-02-27T06:57:15.117Z,3.9
2023-02-27T06:58:31.000Z,4
2023-02-27T06:59:47.000Z,3.4
2023-02-27T07:01:03.000Z,4.1
2023-02-27T07:02:19.000Z,2.5
2023-02-27T07:03:36.071Z,3.5
2023-02-27T07:04:52.000Z,5
2023-02-27T07:05:50.453Z,5.5
2023-02-27T07:07:24.000Z,5.5
2023-02-27T07:08:40.852Z,6.4
2023-02-27T07:09:39.037Z,3.9
2023-02-27T07:11:13.000Z,4.8
2023-02-27T07:12:11.427Z,6.3
2023-02-27T07:13:45.000Z,3.3
2023-02-27T07:15:01.817Z,5.3
2023-02-27T07:16:00.012Z,12.2
2023-02-27T07:17:33.000Z,5.4
2023-02-27T07:18:31.429Z,5.1
2023-02-27T07:20:05.000Z,4.9
2023-02-27T07:21:03.819Z,3.6
2023-02-27T07:22:38.000Z,4.7
2023-02-27T07:23:54.000Z,5.7
2023-02-27T07:25:10.000Z,4.9
2023-02-27T07:26:26.625Z,3.7
2023-02-27T07:27:41.844Z,4.6
2023-02-27T07:28:40.027Z,3.8
2023-02-27T07:30:14.223Z,7.3
2023-02-27T07:31:12.418Z,3.9
2023-02-27T07:32:46.614Z,3.7
2023-02-27T07:33:44.809Z,6.3
2023-02-27T07:35:19.014Z,6.9
2023-02-27T07:36:34.000Z,5.1
2023-02-27T07:37:50.000Z,4.4
2023-02-27T07:39:06.624Z,8.5
2023-02-27T07:40:04.803Z,5.6
2023-02-27T07:41:20.998Z,5.5
2023-02-27T07:42:55.210Z,5.8
2023-02-27T07:44:11.000Z,6.5
2023-02-27T07:45:27.000Z,4.7
2023-02-27T07:46:43.000Z,6
2023-02-27T07:48:18.000Z,3.4
2023-02-27T07:49:16.171Z,3.2
2023-02-27T07:50:32.000Z,6.1
2023-02-27T07:51:30.562Z,7.7
2023-02-27T07:53:04.000Z,8.2
2023-02-27T07:54:20.000Z,2.9
2023-02-27T07:55:18.175Z,4.4
2023-02-27T07:56:52.000Z,3.1
2023-02-27T07:58:08.000Z,5.2
2023-02-27T07:59:24.760Z,4
2023-02-27T08:00:39.000Z,5.7
2023-02-27T08:01:56.000Z,4.2
2023-02-27T08:03:12.359Z,5.3
2023-02-27T08:04:10.554Z,9.4
2023-02-27T08:05:26.750Z,3.3
2023-02-27T08:06:42.945Z,3.7
2023-02-27T08:08:17.141Z,5.1
2023-02-27T08:09:33.000Z,4.9
2023-02-27T08:10:49.000Z,5.7
2023-02-27T08:11:47.727Z,4.7
2023-02-27T08:13:21.000Z,6.4
2023-02-27T08:14:38.118Z,4.9
2023-02-27T08:15:54.314Z,6
2023-02-27T08:16:52.509Z,4.6
2023-02-27T08:18:25.000Z,6.3
2023-02-27T08:19:41.925Z,4.1
2023-02-27T08:20:58.000Z,4.4
2023-02-27T08:22:14.330Z,5.1
2023-02-27T08:23:30.000Z,5.5
2023-02-27T08:24:28.844Z,7.8
2023-02-27T08:26:02.079Z,5.6
2023-02-27T08:27:18.000Z,7.4
2023-02-27T08:28:34.000Z,5
2023-02-27T08:29:50.673Z,4.6
2023-02-27T08:31:06.996Z,2.8
2023-02-27T08:32:05.191Z,3.8
2023-02-27T08:33:21.387Z,4.5
2023-02-27T08:34:37.582Z,3.4
2023-02-27T08:36:11.792Z,6.8
2023-02-27T08:37:26.986Z,5
2023-02-27T08:38:43.000Z,6.8
2023-02-27T08:39:59.000Z,6.4
2023-02-27T08:41:34.000Z,7.5
2023-02-27T08:42:31.000Z,7.1
2023-02-27T08:43:47.964Z,7.2
2023-02-27T08:45:04.176Z,5.3
2023-02-27T08:46:20.000Z,5.4
2023-02-27T08:47:36.564Z,4
2023-02-27T08:48:52.768Z,4.9
2023-02-27T08:50:08.000Z,4.6
2023-02-27T08:51:25.155Z,6.3
2023-02-27T08:52:41.000Z,5.7
2023-02-27T08:53:57.000Z,5.8
2023-02-27T08:54:55.722Z,5.2
2023-02-27T08:56:12.040Z,6
2023-02-27T08:57:28.234Z,5.6
2023-02-27T08:58:43.457Z,4.7
2023-02-27T08:59:59.652Z,6.7
2023-02-27T09:01:33.000Z,4
2023-02-27T09:02:50.069Z,7.4
2023-02-27T09:04:24.000Z,6.2
2023-02-27T09:05:21.462Z,5.3
2023-02-27T09:06:37.000Z,5.4
2023-02-27T09:07:53.000Z,5.8
2023-02-27T09:09:10.049Z,4.5
2023-02-27T09:10:08.244Z,5.8
2023-02-27T09:11:41.000Z,6.5
2023-02-27T09:12:39.662Z,4.7
2023-02-27T09:13:54.874Z,7.3
2023-02-27T09:15:29.000Z,2.9
2023-02-27T09:16:45.000Z,4.6
2023-02-27T09:18:01.461Z,8
2023-02-27T09:19:17.000Z,5.4
2023-02-27T09:20:33.873Z,4.1
2023-02-27T09:21:50.058Z,5.6
2023-02-27T09:23:06.253Z,3.9
2023-02-27T09:24:22.439Z,4.5
2023-02-27T09:25:38.650Z,6.2
2023-02-27T09:26:36.830Z,5.3
2023-02-27T09:28:11.045Z,5
2023-02-27T09:29:27.000Z,9
2023-02-27T09:30:43.417Z,4.8
2023-02-27T09:31:59.000Z,3.3
2023-02-27T09:33:15.820Z,5.3
2023-02-27T09:34:31.000Z,9.1
2023-02-27T09:35:47.226Z,5.1
2023-02-27T09:37:03.411Z,4.1
2023-02-27T09:38:19.000Z,4
2023-02-27T09:39:35.803Z,6.3
2023-02-27T09:40:33.998Z,8.3
2023-02-27T09:42:08.194Z,5.7
2023-02-27T09:43:24.000Z,6
2023-02-27T09:44:40.000Z,4.9
2023-02-27T09:45:56.794Z,7.8
2023-02-27T09:47:12.000Z,5.9
2023-02-27T09:48:10.200Z,7.2
2023-02-27T09:49:26.396Z,5.6
2023-02-27T09:50:42.591Z,4
2023-02-27T09:51:57.803Z,4.8
2023-02-27T09:53:13.998Z,4.4
2023-02-27T09:54:48.194Z,4.8
2023-02-27T09:56:04.000Z,5.6
2023-02-27T09:57:20.000Z,4.1
2023-02-27T09:58:36.798Z,4.6
2023-02-27T09:59:52.000Z,6.1
2023-02-27T10:01:09.185Z,2.9
2023-02-27T10:02:25.000Z,5.6
2023-02-27T10:03:41.586Z,4.3
2023-02-27T10:04:39.759Z,3.9
2023-02-27T10:05:55.954Z,7.2
2023-02-27T10:07:30.000Z,6.8
2023-02-27T10:08:46.345Z,4.9
2023-02-27T10:10:02.541Z,3.5
2023-02-27T10:11:00.736Z,4.8
2023-02-27T10:12:34.000Z,6.9
2023-02-27T10:13:51.127Z,4
2023-02-27T10:15:25.000Z,5.3
2023-02-27T10:16:03.557Z,2.6
2023-02-27T10:17:36.000Z,5.3
2023-02-27T10:19:11.000Z,9.2
2023-02-27T10:19:50.196Z,4
2023-02-27T10:22:40.587Z,6.6
2023-02-27T10:23:38.781Z,4.4
2023-02-27T10:25:12.000Z,8.3
2023-02-27T10:26:28.205Z,5.4
2023-02-27T10:27:44.401Z,2.2
2023-02-27T10:29:00.000Z,3.4
2023-02-27T10:29:58.773Z,2.9
2023-02-27T10:31:32.000Z,3.4
2023-02-27T10:32:49.163Z,4.6
2023-02-27T10:34:05.357Z,6.8
2023-02-27T10:35:21.553Z,2.1
2023-02-27T10:36:37.763Z,2.6
2023-02-27T10:38:12.000Z,2.7
2023-02-27T10:39:10.151Z,1.5
2023-02-27T10:40:26.333Z,2.7
2023-02-27T10:41:42.549Z,3.3
2023-02-27T10:42:39.739Z,1.4
2023-02-27T10:44:13.000Z,3.1
2023-02-27T10:45:30.155Z,2.5
2023-02-27T10:46:46.323Z,4.2
2023-02-27T10:48:02.000Z,2.8
2023-02-27T10:49:18.730Z,5.7
2023-02-27T10:50:34.909Z,2.5
2023-02-27T10:51:33.103Z,4.3
2023-02-27T10:52:48.326Z,1.5
2023-02-27T10:54:04.521Z,2.9
2023-02-27T10:55:38.000Z,2
2023-02-27T10:56:36.910Z,0.9
2023-02-27T10:58:10.152Z,2.4
2023-02-27T10:59:26.000Z,1.3
2023-02-27T11:01:01.000Z,5.1
2023-02-27T11:01:58.733Z,1.7
2023-02-27T11:03:14.913Z,2.2
2023-02-27T11:04:13.107Z,2.9
2023-02-27T11:05:28.315Z,2.9
2023-02-27T11:07:02.521Z,1.4
2023-02-27T11:08:18.721Z,1.4
2023-02-27T11:09:34.000Z,2.1
2023-02-27T11:10:51.096Z,6.9
2023-02-27T11:12:07.290Z,1
2023-02-27T11:13:05.486Z,4.5
2023-02-27T11:14:21.680Z,1.8
2023-02-27T11:15:55.000Z,3.1
2023-02-27T11:17:12.000Z,1.1
2023-02-27T11:18:28.000Z,2
2023-02-27T11:19:44.000Z,1.4
2023-02-27T11:21:00.000Z,1.3
2023-02-27T11:22:16.867Z,2.7
2023-02-27T11:23:14.062Z,1.8
2023-02-27T11:24:47.283Z,1.7
2023-02-27T11:26:03.478Z,1.7
2023-02-27T11:27:19.695Z,1.3
2023-02-27T11:28:34.000Z,3.3
2023-02-27T11:29:33.090Z,1.3
2023-02-27T11:31:06.317Z,2.6
2023-02-27T11:32:22.509Z,5.7
2023-02-27T11:33:38.693Z,1.9
2023-02-27T11:34:54.000Z,1.7
2023-02-27T11:36:11.000Z,1.2
2023-02-27T11:37:27.000Z,4.1
2023-02-27T11:38:43.496Z,1.1
2023-02-27T11:39:59.680Z,1.6
2023-02-27T11:41:15.000Z,1.8
2023-02-27T11:42:14.057Z,1.8
2023-02-27T11:43:48.281Z,1
2023-02-27T11:45:04.000Z,2.3
2023-02-27T11:46:02.642Z,1.2
2023-02-27T11:47:35.876Z,7.3
2023-02-27T11:48:52.000Z,4.3
2023-02-27T11:50:08.000Z,2.7
2023-02-27T11:51:24.000Z,1
2023-02-27T11:52:40.659Z,1.3
2023-02-27T11:53:38.837Z,4
2023-02-27T11:55:12.000Z,3.5
2023-02-27T11:56:28.254Z,2.1
2023-02-27T11:57:44.461Z,3.6
2023-02-27T11:58:59.000Z,1.7
2023-02-27T12:00:15.856Z,1
2023-02-27T12:01:32.072Z,1
2023-02-27T12:02:48.247Z,2.1
2023-02-27T12:04:04.443Z,1.2
2023-02-27T12:05:20.652Z,1.3
2023-02-27T12:06:36.851Z,2
2023-02-27T12:07:53.029Z,0.6
2023-02-27T12:09:09.000Z,1.1
2023-02-27T12:10:07.419Z,1.7
2023-02-27T12:11:41.000Z,1
2023-02-27T12:12:57.829Z,0.6
2023-02-27T12:14:33.000Z,0.6
2023-02-27T12:15:30.000Z,2.8
2023-02-27T12:16:46.000Z,1
2023-02-27T12:17:44.592Z,1.8
2023-02-27T12:19:18.000Z,2.1
2023-02-27T12:20:16.982Z,0.8
2023-02-27T12:21:50.000Z,0.8
2023-02-27T12:22:48.399Z,3.6
2023-02-27T12:24:22.612Z,0.7
2023-02-27T12:25:38.813Z,0.9
2023-02-27T12:26:54.000Z,1
2023-02-27T12:28:11.000Z,0.6
2023-02-27T12:29:09.375Z,1.4
2023-02-27T12:30:43.582Z,2.2
2023-02-27T12:31:59.000Z,1.1
2023-02-27T12:33:15.977Z,0.7
2023-02-27T12:34:31.000Z,4.7
2023-02-27T12:35:29.368Z,0.9
2023-02-27T12:37:03.586Z,1.4
2023-02-27T12:38:01.759Z,0.8
2023-02-27T12:39:54.000Z,0.5
2023-02-27T12:40:52.000Z,1.1
2023-02-27T12:42:08.344Z,2.8
2023-02-27T12:43:24.558Z,0.7
2023-02-27T12:44:22.735Z,1.1
2023-02-27T12:45:38.930Z,1.5
2023-02-27T12:47:13.000Z,1.1
2023-02-27T12:48:29.321Z,1.2
2023-02-27T12:49:45.000Z,0.8
2023-02-27T12:50:43.711Z,2
2023-02-27T12:52:16.000Z,3.2
2023-02-27T12:53:33.000Z,0.5
2023-02-27T12:54:49.323Z,0.5
2023-02-27T12:56:05.544Z,1.8
2023-02-27T12:57:21.000Z,0.8
2023-02-27T12:58:20.056Z,0.7
2023-02-27T12:59:36.251Z,0.8
2023-02-27T13:00:52.446Z,4.7
2023-02-27T13:02:25.680Z,1.6
2023-02-27T13:03:23.853Z,4.8
2023-02-27T13:04:58.000Z,2
2023-02-27T13:06:14.000Z,2.1
2023-02-27T13:07:12.439Z,2.1
2023-02-27T13:08:28.633Z,1.4
2023-02-27T13:10:02.000Z,2.8
2023-02-27T13:11:19.023Z,2.6
2023-02-27T13:12:35.219Z,0.6
2023-02-27T13:13:51.435Z,0.6
2023-02-27T13:15:26.000Z,0.4
2023-02-27T13:16:05.803Z,1.6
2023-02-27T13:17:40.000Z,0.7
2023-02-27T13:18:56.000Z,3
2023-02-27T13:20:12.391Z,0.9
2023-02-27T13:21:10.585Z,0.5
2023-02-27T13:22:25.797Z,0.8
2023-02-27T13:23:42.139Z,0.6
2023-02-27T13:25:16.360Z,0.7
2023-02-27T13:26:32.529Z,0.7
2023-02-27T13:27:48.725Z,0.4
2023-02-27T13:29:04.920Z,0.8
2023-02-27T13:30:21.000Z,3.9
2023-02-27T13:31:37.000Z,0.6
2023-02-27T13:32:53.535Z,1.1
2023-02-27T13:33:51.700Z,1.7
2023-02-27T13:35:26.000Z,1.3
2023-02-27T13:36:24.238Z,1.8
2023-02-27T13:37:39.450Z,2
2023-02-27T13:38:55.645Z,5.3
2023-02-27T13:40:11.840Z,0.7
2023-02-27T13:41:46.052Z,0.5
2023-02-27T13:43:02.231Z,0.9
2023-02-27T13:44:18.000Z,1.7
2023-02-27T13:45:34.621Z,1.9
2023-02-27T13:46:32.815Z,1.9
2023-02-27T13:47:49.012Z,3.5
2023-02-27T13:49:05.206Z,0.6
2023-02-27T13:50:39.000Z,0.5
2023-02-27T13:51:37.597Z,1.4
2023-02-27T13:53:11.000Z,1
2023-02-27T13:54:09.988Z,0.7
2023-02-27T13:55:26.185Z,0.8
2023-02-27T13:57:00.000Z,1
2023-02-27T13:58:16.000Z,1
2023-02-27T13:59:14.770Z,0.7
2023-02-27T14:00:48.990Z,0.6
2023-02-27T14:02:05.189Z,0.5
2023-02-27T14:03:21.000Z,0.6
2023-02-27T14:04:36.738Z,0.6
2023-02-27T14:05:52.000Z,0.5
2023-02-27T14:06:51.102Z,2.3
2023-02-27T14:08:07.297Z,1.1
2023-02-27T14:09:41.000Z,0.6
2023-02-27T14:10:39.688Z,1
2023-02-27T14:11:55.883Z,0.5
2023-02-27T14:13:30.000Z,0.4
2023-02-27T14:14:28.274Z,0.5
2023-02-27T14:16:02.489Z,0.5
2023-02-27T14:17:00.664Z,1.2
2023-02-27T14:18:16.859Z,0.7
2023-02-27T14:20:10.000Z,1.6
2023-02-27T14:21:07.000Z,0.6
2023-02-27T14:22:23.000Z,0.5
2023-02-27T14:23:21.640Z,0.4
2023-02-27T14:24:55.856Z,0.9
2023-02-27T14:26:11.000Z,0.5
2023-02-27T14:27:27.258Z,1
2023-02-27T14:28:43.000Z,0.4
2023-02-27T14:29:59.656Z,0.6
2023-02-27T14:31:14.882Z,0.5
2023-02-27T14:32:13.051Z,0.6
2023-02-27T14:33:29.247Z,2.9
2023-02-27T14:35:03.000Z,0.5
2023-02-27T14:36:19.000Z,0.5
2023-02-27T14:37:35.852Z,4.4
2023-02-27T14:38:33.046Z,1.7
2023-02-27T14:40:07.000Z,2.4
2023-02-27T14:41:05.436Z,0.6
2023-02-27T14:42:21.632Z,0.5
2023-02-27T14:43:55.828Z,0.7
2023-02-27T14:44:54.023Z,1.1
2023-02-27T14:46:28.000Z,1.1
2023-02-27T14:47:44.000Z,0.6
2023-02-27T14:48:42.608Z,0.5
2023-02-27T14:50:16.825Z,0.6
2023-02-27T14:51:33.000Z,0.7
2023-02-27T14:52:49.218Z,0.5
2023-02-27T14:54:05.389Z,1
2023-02-27T14:55:20.000Z,1.5
2023-02-27T14:56:36.000Z,0.5
2023-02-27T14:57:52.980Z,1.5
2023-02-27T14:59:09.187Z,1.1
2023-02-27T15:00:25.382Z,0.5
2023-02-27T15:01:41.566Z,1.3
2023-02-27T15:02:57.773Z,0.7
2023-02-27T15:04:13.968Z,0.7
2023-02-27T15:05:30.167Z,0.8
2023-02-27T15:06:46.359Z,0.4
2023-02-27T15:07:44.555Z,0.8
2023-02-27T15:09:18.748Z,3.2
2023-02-27T15:10:34.945Z,0.9
2023-02-27T15:12:10.000Z,0.5
2023-02-27T15:13:07.000Z,0.5
2023-02-27T15:14:23.521Z,1.9
2023-02-27T15:15:38.745Z,0.5
2023-02-27T15:16:54.928Z,0.7
2023-02-27T15:17:53.133Z,1.6
2023-02-27T15:19:27.329Z,0.6
2023-02-27T15:20:25.525Z,0.8
2023-02-27T15:21:59.000Z,0.7
2023-02-27T15:23:15.903Z,2.5
2023-02-27T15:24:14.112Z,0.7
2023-02-27T15:25:48.000Z,1.4
2023-02-27T15:27:23.000Z,0.6
2023-02-27T15:28:20.703Z,0.5
2023-02-27T15:29:36.892Z,1.3
2023-02-27T15:30:35.089Z,1.4
2023-02-27T15:32:27.000Z,0.7
2023-02-27T15:33:24.497Z,1.3
2023-02-27T15:34:40.000Z,1.6
2023-02-27T15:35:38.887Z,1.6
2023-02-27T15:37:13.000Z,2.5
2023-02-27T15:38:29.279Z,0.6
2023-02-27T15:39:45.469Z,0.6
2023-02-27T15:41:01.000Z,0.7
2023-02-27T15:42:17.000Z,0.7
2023-02-27T15:43:16.061Z,0.6
2023-02-27T15:44:50.000Z,0.6
2023-02-27T15:46:06.442Z,0.7
2023-02-27T15:47:22.000Z,0.6
2023-02-27T15:48:38.000Z,0.7
2023-02-27T15:49:55.039Z,0.8
2023-02-27T15:51:10.248Z,0.5
2023-02-27T15:52:26.444Z,1.1
2023-02-27T15:53:42.628Z,2.9
2023-02-27T15:54:40.834Z,1.1
2023-02-27T15:56:15.027Z,0.6
2023-02-27T15:57:31.000Z,5.5
2023-02-27T15:58:47.420Z,4.3
2023-02-27T16:00:03.000Z,0.5
2023-02-27T16:01:01.810Z,0.6
2023-02-27T16:02:35.000Z,2.8
2023-02-27T16:03:51.222Z,0.8
2023-02-27T16:05:07.407Z,0.5
2023-02-27T16:06:23.604Z,1
2023-02-27T16:07:39.000Z,0.8
2023-02-27T16:08:56.000Z,1.1
2023-02-27T16:10:12.201Z,0.6
2023-02-27T16:11:28.391Z,1.4
2023-02-27T16:12:26.590Z,0.5
2023-02-27T16:14:00.774Z,1.5
2023-02-27T16:15:16.980Z,2
2023-02-27T16:16:33.000Z,0.6
2023-02-27T16:17:49.000Z,1.3
2023-02-27T16:19:05.561Z,2.5
2023-02-27T16:20:03.883Z,0.7
2023-02-27T16:21:38.000Z,1.2
2023-02-27T16:22:54.000Z,0.7
2023-02-27T16:23:52.469Z,0.5
2023-02-27T16:25:26.668Z,0.6
2023-02-27T16:26:42.848Z,1.2
2023-02-27T16:27:59.000Z,0.6
2023-02-27T16:29:15.249Z,1
2023-02-27T16:30:31.000Z,0.8
2023-02-27T16:31:47.641Z,1.2
2023-02-27T16:32:45.836Z,2
2023-02-27T16:34:02.031Z,1.3
2023-02-27T16:35:36.000Z,5.2
2023-02-27T16:36:34.421Z,1.1
2023-02-27T16:38:07.633Z,0.5
2023-02-27T16:39:05.826Z,1.8
2023-02-27T16:40:40.000Z,0.6
2023-02-27T16:41:56.213Z,1.1
2023-02-27T16:43:12.402Z,1.6
2023-02-27T16:44:10.599Z,0.6
2023-02-27T16:45:44.000Z,1
2023-02-27T16:46:42.985Z,1
2023-02-27T16:48:17.172Z,0.6
2023-02-27T16:49:33.361Z,0.9
2023-02-27T16:50:31.565Z,1.6
2023-02-27T16:52:05.749Z,0.7
2023-02-27T16:53:21.952Z,1.9
2023-02-27T16:54:38.145Z,3.6
2023-02-27T16:55:54.000Z,0.6
2023-02-27T16:56:52.532Z,0.8
2023-02-27T16:58:25.749Z,0.6
2023-02-27T16:59:23.935Z,0.6
2023-02-27T17:00:58.000Z,5.6
2023-02-27T17:01:56.321Z,1.2
2023-02-27T17:03:12.514Z,0.7
2023-02-27T17:04:46.697Z,1.8
2023-02-27T17:05:44.901Z,2.3
2023-02-27T17:07:19.000Z,1
2023-02-27T17:08:35.000Z,0.7
2023-02-27T17:09:33.482Z,1.4
2023-02-27T17:11:07.675Z,1.5
2023-02-27T17:12:05.869Z,1.6
2023-02-27T17:13:22.062Z,1.2
2023-02-27T17:14:38.256Z,0.9
2023-02-27T17:16:12.450Z,1.4
2023-02-27T17:17:10.643Z,0.7
2023-02-27T17:18:44.000Z,5.6
2023-02-27T17:20:01.000Z,2
2023-02-27T17:21:17.222Z,1.4
2023-02-27T17:22:32.439Z,3.7
2023-02-27T17:23:48.000Z,0.8
2023-02-27T17:24:46.819Z,1.9
2023-02-27T17:26:40.000Z,1.8
2023-02-27T17:27:37.203Z,4.1
2023-02-27T17:28:53.392Z,2.7
2023-02-27T17:30:09.585Z,2.2
2023-02-27T17:31:25.777Z,2.4
2023-02-27T17:32:41.979Z,1.1
2023-02-27T17:33:58.174Z,1.3
2023-02-27T17:34:56.366Z,3.9
2023-02-27T17:36:30.000Z,1.3